Time;durP1;ratioP1;P1;durP2;ratioP2;P2;SDS_P1;SDS_P2;PMS_P1;PMS_P2;Temp;Humidity;BMP_temperature;BMP_pressure;BME280_temperature;BME280_humidity;BME280_pressure;Samples;Min_cycle;Max_cycle;Signal;HPM_P1;HPM_P2
2023/04/23 00:00:04;;;;;;;90.78;57.22;;;11.40;99.90;;;;;;5066442;28;20021;-72
2023/04/23 00:02:32;;;;;;;96.32;60.47;;;11.40;99.90;;;;;;5066500;28;20108;-73
2023/04/23 00:05:04;;;;;;;105.75;63.33;;;11.40;99.90;;;;;;5068530;28;20742;-73
2023/04/23 00:07:31;;;;;;;95.75;59.42;;;11.40;99.90;;;;;;5067787;28;20036;-72
2023/04/23 00:09:58;;;;;;;97.88;61.15;;;11.50;99.90;;;;;;5068810;28;20470;-74
2023/04/23 00:12:25;;;;;;;103.07;60.28;;;11.50;99.90;;;;;;5068542;28;20043;-73
2023/04/23 00:14:51;;;;;;;104.90;63.90;;;11.50;99.90;;;;;;5066717;28;20031;-74
2023/04/23 00:17:18;;;;;;;109.97;65.85;;;11.50;99.90;;;;;;5067013;28;20025;-72
2023/04/23 00:19:45;;;;;;;105.57;64.45;;;11.40;99.90;;;;;;5063916;28;20491;-72
2023/04/23 00:22:12;;;;;;;107.28;65.25;;;11.50;99.90;;;;;;5068341;28;20526;-73
2023/04/23 00:24:38;;;;;;;97.68;58.20;;;11.50;99.90;;;;;;5070689;28;20024;-72
2023/04/23 00:27:05;;;;;;;94.75;61.15;;;11.60;99.90;;;;;;5069107;28;20085;-73
2023/04/23 00:29:31;;;;;;;98.85;58.97;;;11.50;99.90;;;;;;5068780;28;20028;-73
2023/04/23 00:31:56;;;;;;;92.93;57.28;;;11.50;99.90;;;;;;5069479;28;20020;-73
2023/04/23 00:34:22;;;;;;;108.22;63.15;;;11.50;99.90;;;;;;5068907;28;20112;-72
2023/04/23 00:36:48;;;;;;;105.47;64.53;;;11.50;99.90;;;;;;5065944;28;20032;-73
2023/04/23 00:39:14;;;;;;;100.88;61.53;;;11.50;99.90;;;;;;5069173;28;20081;-74
2023/04/23 00:41:41;;;;;;;102.22;60.60;;;11.50;99.90;;;;;;5068100;28;20017;-72
2023/04/23 00:44:10;;;;;;;101.20;58.60;;;11.50;99.90;;;;;;5066278;28;20048;-74
2023/04/23 00:46:36;;;;;;;101.68;61.28;;;11.40;99.90;;;;;;5065764;28;20772;-73
2023/04/23 00:49:02;;;;;;;93.32;56.38;;;11.40;99.90;;;;;;5067331;28;20143;-72
2023/04/23 00:51:28;;;;;;;102.85;60.20;;;11.40;99.90;;;;;;5069643;28;20095;-73
2023/04/23 00:53:55;;;;;;;94.57;57.92;;;11.40;99.90;;;;;;5067536;28;20098;-72
2023/04/23 00:56:22;;;;;;;98.65;59.13;;;11.40;99.90;;;;;;5069452;28;20364;-72
2023/04/23 00:58:50;;;;;;;98.97;57.72;;;11.40;99.90;;;;;;5068560;28;20115;-72
2023/04/23 01:01:19;;;;;;;92.45;55.35;;;11.40;99.90;;;;;;5065377;28;20028;-73
2023/04/23 01:03:47;;;;;;;90.03;56.15;;;11.40;99.90;;;;;;5065895;28;20059;-73
2023/04/23 01:06:13;;;;;;;92.03;55.42;;;11.40;99.90;;;;;;5066537;28;20024;-73
2023/04/23 01:08:41;;;;;;;94.35;55.10;;;11.40;99.90;;;;;;5068737;28;20056;-73
2023/04/23 01:11:07;;;;;;;90.72;54.63;;;11.40;99.90;;;;;;5065080;28;20044;-73
2023/04/23 01:13:34;;;;;;;100.38;59.20;;;11.40;99.90;;;;;;5069175;28;20250;-73
2023/04/23 01:16:01;;;;;;;100.47;57.13;;;11.40;99.90;;;;;;5067938;28;20024;-73
2023/04/23 01:18:28;;;;;;;99.85;58.58;;;11.30;99.90;;;;;;5068791;28;20484;-73
2023/04/23 01:20:54;;;;;;;89.03;53.05;;;11.30;99.90;;;;;;5066058;28;20036;-72
2023/04/23 01:23:21;;;;;;;100.82;58.20;;;11.30;99.90;;;;;;5067537;28;20016;-73
2023/04/23 01:25:47;;;;;;;90.60;53.50;;;11.30;99.90;;;;;;5068807;28;20021;-73
2023/04/23 01:28:13;;;;;;;87.72;53.65;;;11.30;99.90;;;;;;5066994;28;20012;-73
2023/04/23 01:30:41;;;;;;;93.47;55.85;;;11.30;99.90;;;;;;5065290;28;20084;-73
2023/04/23 01:33:08;;;;;;;92.13;53.97;;;11.30;99.90;;;;;;5067590;28;20029;-72
2023/04/23 01:35:35;;;;;;;101.30;58.60;;;11.40;99.90;;;;;;5066165;28;20016;-73
2023/04/23 01:38:02;;;;;;;100.03;57.70;;;11.40;99.90;;;;;;5067392;28;20086;-73
2023/04/23 01:40:28;;;;;;;90.35;53.72;;;11.40;99.90;;;;;;5065704;28;20107;-72
2023/04/23 01:42:55;;;;;;;86.20;51.88;;;11.40;99.90;;;;;;5067277;28;20079;-73
2023/04/23 01:45:21;;;;;;;83.63;49.70;;;11.40;99.90;;;;;;5067690;28;20047;-74
2023/04/23 01:47:47;;;;;;;81.53;50.47;;;11.40;99.90;;;;;;5067988;28;20041;-72
2023/04/23 01:50:13;;;;;;;92.30;55.72;;;11.30;99.90;;;;;;5064830;28;20111;-73
2023/04/23 01:52:40;;;;;;;93.28;54.03;;;11.30;99.90;;;;;;5065541;28;20079;-74
2023/04/23 01:55:05;;;;;;;93.82;56.33;;;11.30;99.90;;;;;;5067763;28;20017;-72
2023/04/23 01:57:31;;;;;;;85.53;50.40;;;11.30;99.90;;;;;;5067546;28;20028;-72
2023/04/23 02:00:07;;;;;;;90.78;52.80;;;11.30;99.90;;;;;;5066848;28;20101;-73
2023/04/23 02:02:34;;;;;;;86.32;51.80;;;11.30;99.90;;;;;;5065152;28;20025;-72
2023/04/23 02:05:03;;;;;;;91.25;50.97;;;11.30;99.90;;;;;;5065604;28;20029;-73
2023/04/23 02:07:30;;;;;;;87.67;50.83;;;11.30;99.90;;;;;;5065705;28;20040;-73
2023/04/23 02:09:55;;;;;;;77.38;46.50;;;11.30;99.90;;;;;;5066753;28;20021;-72
2023/04/23 02:12:22;;;;;;;77.38;45.03;;;11.30;99.90;;;;;;5065586;28;20827;-73
2023/04/23 02:14:48;;;;;;;90.40;52.00;;;11.30;99.90;;;;;;5067276;28;20031;-72
2023/04/23 02:17:13;;;;;;;104.43;61.85;;;11.20;99.90;;;;;;5064562;28;20025;-72
2023/04/23 02:19:39;;;;;;;98.97;56.38;;;11.20;99.90;;;;;;5067880;28;20039;-73
2023/04/23 02:22:06;;;;;;;99.57;57.63;;;11.20;99.90;;;;;;5067429;28;20107;-73
2023/04/23 02:24:32;;;;;;;91.68;51.55;;;11.20;99.90;;;;;;5066279;28;20467;-72
2023/04/23 02:26:58;;;;;;;95.07;56.58;;;11.20;99.90;;;;;;5065869;28;20142;-72
2023/04/23 02:29:25;;;;;;;88.30;50.15;;;11.20;99.90;;;;;;5064884;28;20072;-71
2023/04/23 02:31:50;;;;;;;81.20;48.33;;;11.20;99.90;;;;;;5067706;28;20017;-73
2023/04/23 02:34:16;;;;;;;97.03;56.72;;;11.20;99.90;;;;;;5065543;28;20747;-71
2023/04/23 02:36:41;;;;;;;99.47;57.58;;;11.10;99.90;;;;;;5064986;28;20019;-73
2023/04/23 02:39:08;;;;;;;100.60;59.05;;;11.10;99.90;;;;;;5065614;28;20037;-72
2023/04/23 02:41:33;;;;;;;88.43;52.30;;;11.10;99.90;;;;;;5067218;28;20020;-72
2023/04/23 02:43:59;;;;;;;93.22;58.85;;;11.10;99.90;;;;;;5067645;28;20501;-71
2023/04/23 02:46:25;;;;;;;95.45;57.33;;;11.00;99.90;;;;;;5066589;28;20033;-71
2023/04/23 02:48:50;;;;;;;95.78;57.08;;;11.00;99.90;;;;;;5069754;28;20078;-72
2023/04/23 02:51:16;;;;;;;74.63;46.80;;;11.00;99.90;;;;;;5071289;28;20028;-72
2023/04/23 02:53:42;;;;;;;71.82;44.45;;;11.00;99.90;;;;;;5071174;28;20047;-72
2023/04/23 02:56:07;;;;;;;56.72;36.63;;;10.90;99.90;;;;;;5071190;28;20056;-72
2023/04/23 02:58:33;;;;;;;69.30;41.45;;;10.90;99.90;;;;;;5068838;28;20033;-72
2023/04/23 03:00:59;;;;;;;90.63;53.42;;;10.90;99.90;;;;;;5071502;28;20017;-72
2023/04/23 03:03:30;;;;;;;76.72;47.08;;;10.90;99.90;;;;;;5068229;28;20123;-72
2023/04/23 03:05:56;;;;;;;66.70;42.42;;;10.90;99.90;;;;;;5069023;28;20097;-72
2023/04/23 03:08:22;;;;;;;71.07;43.47;;;10.90;99.90;;;;;;5069849;28;20037;-73
2023/04/23 03:10:48;;;;;;;92.07;55.60;;;10.90;99.90;;;;;;5071322;28;20080;-72
2023/04/23 03:13:13;;;;;;;77.28;47.55;;;10.90;99.90;;;;;;5070142;28;20056;-72
2023/04/23 03:15:40;;;;;;;65.43;38.17;;;10.80;99.90;;;;;;5069962;28;20032;-72
2023/04/23 03:18:07;;;;;;;72.47;43.15;;;10.80;99.90;;;;;;5063955;28;20021;-72
2023/04/23 03:20:33;;;;;;;63.17;39.03;;;10.80;99.90;;;;;;5070805;28;20060;-73
2023/04/23 03:22:58;;;;;;;68.95;42.88;;;10.70;99.90;;;;;;5069772;28;20043;-72
2023/04/23 03:25:24;;;;;;;76.40;47.80;;;10.70;99.90;;;;;;5070728;28;20056;-73
2023/04/23 03:27:51;;;;;;;65.03;42.42;;;10.70;99.90;;;;;;5070957;28;20111;-73
2023/04/23 03:30:17;;;;;;;68.57;40.17;;;10.70;99.90;;;;;;5071278;28;20028;-73
2023/04/23 03:32:42;;;;;;;63.97;38.20;;;10.70;99.90;;;;;;5071088;28;20025;-73
2023/04/23 03:35:08;;;;;;;71.00;42.78;;;10.70;99.90;;;;;;5066647;28;20363;-72
2023/04/23 03:37:34;;;;;;;70.40;43.80;;;10.70;99.90;;;;;;5069380;28;20033;-73
2023/04/23 03:40:05;;;;;;;76.32;47.38;;;10.70;99.90;;;;;;5070013;28;20025;-72
2023/04/23 03:42:31;;;;;;;67.40;40.78;;;10.70;99.90;;;;;;5066229;28;20099;-73
2023/04/23 03:44:57;;;;;;;70.22;40.08;;;10.70;99.90;;;;;;5070858;28;20024;-71
2023/04/23 03:47:22;;;;;;;68.13;42.38;;;10.70;99.90;;;;;;5068616;28;20158;-72
2023/04/23 03:49:48;;;;;;;74.10;44.55;;;10.70;99.90;;;;;;5069503;28;20032;-73
2023/04/23 03:52:14;;;;;;;74.00;44.10;;;10.70;99.90;;;;;;5069173;28;20021;-74
2023/04/23 03:54:39;;;;;;;67.20;40.40;;;10.70;99.90;;;;;;5070121;28;20515;-72
2023/04/23 03:57:05;;;;;;;78.82;44.95;;;10.70;99.90;;;;;;5066520;28;20055;-72
2023/04/23 03:59:31;;;;;;;67.75;42.53;;;10.70;99.90;;;;;;5070419;28;20406;-72
2023/04/23 04:01:57;;;;;;;75.00;48.25;;;10.70;99.90;;;;;;5070019;28;20363;-73
2023/04/23 04:04:23;;;;;;;82.03;50.45;;;10.70;99.90;;;;;;5069073;28;20544;-73
2023/04/23 04:06:48;;;;;;;71.63;44.28;;;10.70;99.90;;;;;;5068494;28;20029;-73
2023/04/23 04:09:14;;;;;;;52.90;34.47;;;10.70;99.90;;;;;;5070095;28;20024;-72
2023/04/23 04:11:40;;;;;;;69.75;43.15;;;10.70;99.90;;;;;;5067863;28;20497;-73
2023/04/23 04:14:05;;;;;;;62.97;38.83;;;10.70;99.90;;;;;;5067870;28;20078;-73
2023/04/23 04:16:31;;;;;;;64.78;38.20;;;10.70;99.90;;;;;;5068947;28;20020;-72
2023/04/23 04:18:56;;;;;;;78.90;48.05;;;10.70;99.90;;;;;;5067284;28;20056;-73
2023/04/23 04:21:22;;;;;;;73.18;45.25;;;10.70;99.90;;;;;;5069487;28;20017;-73
2023/04/23 04:23:48;;;;;;;72.20;46.35;;;10.70;99.90;;;;;;5067819;28;20024;-72
2023/04/23 04:26:15;;;;;;;56.17;35.60;;;10.70;99.90;;;;;;5069289;28;20074;-73
2023/04/23 04:28:40;;;;;;;68.53;39.28;;;10.70;99.90;;;;;;5065955;28;20383;-73
2023/04/23 04:31:07;;;;;;;66.22;42.13;;;10.80;99.90;;;;;;5068368;28;20020;-74
2023/04/23 04:33:34;;;;;;;70.80;43.67;;;10.80;99.90;;;;;;5062967;28;20021;-73
2023/04/23 04:36:00;;;;;;;70.97;43.67;;;10.80;99.90;;;;;;5069907;28;20012;-72
2023/04/23 04:38:27;;;;;;;70.20;41.35;;;10.80;99.90;;;;;;5069943;28;20009;-73
2023/04/23 04:41:01;;;;;;;74.50;44.83;;;10.80;99.90;;;;;;5068837;28;20115;-72
2023/04/23 04:43:26;;;;;;;66.88;42.50;;;10.80;99.90;;;;;;5068049;28;20062;-73
2023/04/23 04:45:52;;;;;;;74.25;44.25;;;10.80;99.90;;;;;;5068767;28;20028;-72
2023/04/23 04:48:18;;;;;;;72.18;45.05;;;10.80;99.90;;;;;;5069527;28;20064;-72
2023/04/23 04:50:44;;;;;;;67.65;40.33;;;10.90;99.90;;;;;;5069634;28;20048;-71
2023/04/23 04:53:09;;;;;;;64.93;39.50;;;10.90;99.90;;;;;;5069357;28;20017;-72
2023/04/23 04:55:35;;;;;;;62.90;40.03;;;10.90;99.90;;;;;;5067506;28;20065;-73
2023/04/23 04:58:01;;;;;;;72.97;45.78;;;11.00;99.90;;;;;;5067071;28;20032;-72
2023/04/23 05:00:28;;;;;;;66.18;40.88;;;11.00;99.90;;;;;;5068059;28;20078;-73
2023/04/23 05:02:56;;;;;;;63.40;39.83;;;11.00;99.90;;;;;;5067190;28;20048;-72
2023/04/23 05:05:25;;;;;;;65.50;40.75;;;11.10;99.90;;;;;;5067611;28;20048;-71
2023/04/23 05:07:53;;;;;;;69.70;45.50;;;11.10;99.90;;;;;;5066986;28;20035;-71
2023/04/23 05:10:19;;;;;;;60.35;38.42;;;11.20;99.90;;;;;;5068859;28;20021;-72
2023/04/23 05:12:45;;;;;;;70.25;43.75;;;11.20;99.90;;;;;;5069518;28;20100;-73
2023/04/23 05:15:12;;;;;;;57.38;38.25;;;11.20;99.90;;;;;;5069868;28;20116;-73
2023/04/23 05:17:39;;;;;;;77.38;48.92;;;11.20;99.90;;;;;;5067929;28;20021;-72
2023/04/23 05:20:09;;;;;;;54.38;35.78;;;11.30;99.90;;;;;;5069153;28;20047;-72
2023/04/23 05:22:36;;;;;;;50.78;33.45;;;11.30;99.90;;;;;;5068976;28;20498;-72
2023/04/23 05:25:03;;;;;;;60.03;39.10;;;11.30;99.90;;;;;;5066247;28;20021;-72
2023/04/23 05:27:28;;;;;;;71.43;44.85;;;11.40;99.90;;;;;;5064337;28;20510;-73
2023/04/23 05:29:54;;;;;;;59.17;37.67;;;11.40;99.90;;;;;;5066451;28;20024;-73
2023/04/23 05:32:20;;;;;;;61.50;38.25;;;11.40;99.90;;;;;;5066239;28;20032;-72
2023/04/23 05:34:46;;;;;;;56.42;36.92;;;11.40;99.90;;;;;;5066730;28;20854;-73
2023/04/23 05:37:12;;;;;;;61.97;41.22;;;11.50;99.90;;;;;;5063872;28;20139;-72
2023/04/23 05:39:38;;;;;;;57.70;39.15;;;11.50;99.90;;;;;;5066805;28;20371;-73
2023/04/23 05:42:03;;;;;;;57.45;38.08;;;11.50;99.90;;;;;;5066225;28;20020;-73
2023/04/23 05:44:29;;;;;;;50.90;36.17;;;11.60;99.90;;;;;;5066793;28;20471;-73
2023/04/23 05:46:55;;;;;;;56.20;37.00;;;11.60;99.90;;;;;;5064223;28;20033;-73
2023/04/23 05:49:22;;;;;;;57.75;38.72;;;11.60;99.90;;;;;;5063540;28;20039;-72
2023/04/23 05:51:47;;;;;;;55.03;37.65;;;11.60;99.90;;;;;;5066605;28;20423;-72
2023/04/23 05:54:14;;;;;;;57.08;38.15;;;11.70;99.90;;;;;;5066523;28;20021;-73
2023/04/23 05:56:40;;;;;;;52.33;35.13;;;11.70;99.90;;;;;;5067792;28;20024;-72
2023/04/23 05:59:05;;;;;;;51.00;35.60;;;11.80;99.90;;;;;;5067388;28;20020;-74
2023/04/23 06:01:31;;;;;;;51.88;36.65;;;11.80;99.90;;;;;;5067470;28;20028;-73
2023/04/23 06:03:57;;;;;;;53.38;37.95;;;11.90;99.90;;;;;;5065628;28;20044;-72
2023/04/23 06:06:22;;;;;;;48.35;33.42;;;12.00;99.90;;;;;;5065743;28;20501;-73
2023/04/23 06:08:49;;;;;;;49.08;34.25;;;12.00;99.90;;;;;;5067517;28;20047;-75
2023/04/23 06:11:15;;;;;;;42.00;29.52;;;12.10;99.90;;;;;;5065833;28;20020;-73
2023/04/23 06:13:41;;;;;;;47.28;32.28;;;12.20;99.90;;;;;;5067058;28;20032;-72
2023/04/23 06:16:08;;;;;;;45.55;31.73;;;12.20;99.90;;;;;;5060354;28;20029;-74
2023/04/23 06:18:34;;;;;;;38.88;26.73;;;12.30;99.90;;;;;;5061377;28;20366;-74
2023/04/23 06:21:03;;;;;;;32.03;21.45;;;12.40;99.90;;;;;;5059712;28;20033;-74
2023/04/23 06:23:30;;;;;;;40.45;28.90;;;12.40;99.90;;;;;;5067720;28;20025;-73
2023/04/23 06:25:56;;;;;;;36.05;24.58;;;12.50;99.90;;;;;;5060325;28;20368;-72
2023/04/23 06:28:21;;;;;;;34.40;25.42;;;12.60;99.90;;;;;;5048557;28;20029;-72
2023/04/23 06:30:47;;;;;;;36.67;27.67;;;12.70;99.90;;;;;;5066605;28;20024;-73
2023/04/23 06:33:13;;;;;;;32.05;23.75;;;12.90;99.90;;;;;;5066609;28;20032;-74
2023/04/23 06:35:39;;;;;;;32.05;23.60;;;13.00;99.90;;;;;;5064715;28;20498;-74
2023/04/23 06:38:05;;;;;;;32.28;25.30;;;13.20;99.90;;;;;;5047278;28;20029;-74
2023/04/23 06:40:31;;;;;;;21.98;17.13;;;13.30;99.90;;;;;;5063394;28;20029;-74
2023/04/23 06:42:57;;;;;;;35.15;26.25;;;13.40;99.90;;;;;;5059263;28;20054;-74
2023/04/23 06:45:23;;;;;;;28.88;21.20;;;13.40;99.90;;;;;;5064423;28;20017;-73
2023/04/23 06:47:48;;;;;;;23.13;18.27;;;13.50;99.90;;;;;;5066485;28;20121;-73
2023/04/23 06:50:14;;;;;;;28.25;22.20;;;13.50;99.90;;;;;;5063922;28;20027;-74
2023/04/23 06:52:40;;;;;;;31.75;21.98;;;13.60;99.90;;;;;;5063676;28;20025;-73
2023/04/23 06:55:07;;;;;;;24.00;18.40;;;13.70;99.90;;;;;;5061868;28;20015;-73
2023/04/23 06:57:34;;;;;;;20.13;17.00;;;13.80;99.80;;;;;;5067286;28;20054;-73
2023/04/23 07:00:00;;;;;;;21.60;17.58;;;13.80;99.60;;;;;;5066660;28;20051;-74
2023/04/23 07:02:26;;;;;;;23.40;18.75;;;13.80;99.30;;;;;;5068274;28;20016;-73
2023/04/23 07:04:51;;;;;;;23.42;19.92;;;13.90;99.40;;;;;;5066127;28;20045;-73
2023/04/23 07:07:17;;;;;;;25.02;19.63;;;14.00;99.30;;;;;;5058562;28;20546;-74
2023/04/23 07:09:43;;;;;;;21.27;17.15;;;14.20;99.00;;;;;;5050276;28;20024;-75
2023/04/23 07:12:09;;;;;;;21.08;18.80;;;14.20;98.90;;;;;;5066460;28;20425;-73
2023/04/23 07:14:34;;;;;;;22.23;18.13;;;14.30;98.80;;;;;;5067786;28;20025;-72
2023/04/23 07:17:00;;;;;;;18.38;16.02;;;14.40;98.90;;;;;;5062648;28;20509;-75
2023/04/23 07:19:26;;;;;;;19.75;15.13;;;14.50;98.50;;;;;;5068004;28;20025;-74
2023/04/23 07:21:52;;;;;;;19.58;16.65;;;14.60;98.00;;;;;;5067322;28;20024;-74
2023/04/23 07:24:18;;;;;;;18.67;15.43;;;14.70;97.90;;;;;;5048467;28;20036;-74
2023/04/23 07:26:44;;;;;;;21.38;16.50;;;14.70;97.40;;;;;;5065316;28;20020;-76
2023/04/23 07:29:10;;;;;;;18.35;13.48;;;14.80;97.40;;;;;;5067835;28;20032;-75
2023/04/23 07:31:36;;;;;;;17.88;15.98;;;14.80;97.00;;;;;;5067883;28;20033;-75
2023/04/23 07:34:02;;;;;;;19.42;15.70;;;14.90;96.90;;;;;;5070954;28;20025;-74
2023/04/23 07:36:27;;;;;;;18.38;14.60;;;14.90;97.10;;;;;;5072525;28;20025;-75
2023/04/23 07:38:53;;;;;;;18.48;15.48;;;15.00;97.00;;;;;;5075307;28;20494;-74
2023/04/23 07:41:22;;;;;;;16.13;13.95;;;15.10;97.00;;;;;;5075098;28;20044;-75
2023/04/23 07:43:47;;;;;;;19.73;14.93;;;15.30;96.90;;;;;;5075363;28;20024;-75
2023/04/23 07:46:13;;;;;;;17.83;14.68;;;15.40;96.60;;;;;;5071841;28;20044;-75
2023/04/23 07:48:39;;;;;;;18.20;14.02;;;15.50;96.20;;;;;;5062708;28;20085;-75
2023/04/23 07:51:05;;;;;;;12.52;9.02;;;15.60;95.90;;;;;;5070554;28;20032;-76
2023/04/23 07:53:31;;;;;;;13.50;11.13;;;15.70;95.90;;;;;;5071465;28;20021;-75
2023/04/23 07:55:56;;;;;;;14.93;12.38;;;15.80;95.50;;;;;;5071570;28;20044;-74
2023/04/23 07:58:23;;;;;;;11.68;9.05;;;15.90;95.60;;;;;;5068624;28;20043;-75
2023/04/23 08:00:49;;;;;;;12.82;8.68;;;16.00;95.30;;;;;;5071219;28;20103;-74
2023/04/23 08:03:15;;;;;;;15.20;11.57;;;16.10;95.20;;;;;;5071302;28;20452;-75
2023/04/23 08:05:41;;;;;;;11.27;9.25;;;16.20;95.20;;;;;;5063177;28;20031;-75
2023/04/23 08:08:07;;;;;;;12.38;9.70;;;16.30;94.90;;;;;;5070933;28;20033;-74
2023/04/23 08:10:35;;;;;;;11.95;8.13;;;16.30;94.80;;;;;;5069205;28;20021;-75
2023/04/23 08:13:01;;;;;;;9.32;7.07;;;16.30;94.50;;;;;;5063893;28;20020;-75
2023/04/23 08:15:27;;;;;;;12.52;8.75;;;16.40;94.30;;;;;;5058388;28;20025;-75
2023/04/23 08:17:52;;;;;;;10.20;7.43;;;16.50;94.50;;;;;;5061276;28;20352;-77
2023/04/23 08:20:18;;;;;;;11.98;8.43;;;16.70;94.40;;;;;;5055879;28;20029;-73
2023/04/23 08:22:44;;;;;;;14.65;9.80;;;16.90;94.10;;;;;;5059342;28;20017;-75
2023/04/23 08:25:11;;;;;;;13.43;7.72;;;17.10;93.50;;;;;;5071011;28;20421;-76
2023/04/23 08:27:37;;;;;;;12.70;9.25;;;17.10;93.20;;;;;;5066607;28;20040;-75
2023/04/23 08:30:03;;;;;;;9.77;6.28;;;17.10;93.00;;;;;;5067711;28;20024;-74
2023/04/23 08:32:29;;;;;;;11.85;6.10;;;17.20;93.00;;;;;;5069553;28;20052;-76
2023/04/23 08:34:55;;;;;;;10.48;8.10;;;17.30;93.20;;;;;;5070431;28;20056;-76
2023/04/23 08:37:20;;;;;;;12.98;7.25;;;17.40;93.00;;;;;;5069928;28;20074;-76
2023/04/23 08:39:46;;;;;;;11.90;7.25;;;17.50;92.70;;;;;;5061200;28;20090;-75
2023/04/23 08:42:36;;;;;;;11.55;8.15;;;17.70;92.30;;;;;;5064309;28;20088;-77
2023/04/23 08:45:02;;;;;;;9.27;7.07;;;17.80;91.90;;;;;;5065893;28;20013;-75
2023/04/23 08:47:30;;;;;;;10.07;4.68;;;17.80;92.20;;;;;;5063636;28;20093;-74
2023/04/23 08:49:58;;;;;;;14.25;8.02;;;17.90;92.70;;;;;;5069668;28;20060;-76
2023/04/23 08:52:25;;;;;;;10.50;6.13;;;17.90;91.80;;;;;;5068480;28;20020;-75
2023/04/23 08:54:59;;;;;;;10.20;5.90;;;18.00;91.50;;;;;;5068400;28;20028;-76
2023/04/23 08:57:26;;;;;;;15.00;6.72;;;17.90;91.40;;;;;;5069891;28;20095;-77
2023/04/23 08:59:52;;;;;;;10.20;4.85;;;18.00;90.90;;;;;;5069492;28;20028;-76
2023/04/23 09:02:18;;;;;;;9.93;5.20;;;18.20;91.50;;;;;;5066710;28;20021;-75
2023/04/23 09:04:44;;;;;;;10.68;7.05;;;18.20;91.50;;;;;;5063493;28;20503;-76
2023/04/23 09:07:11;;;;;;;10.88;4.97;;;18.30;91.00;;;;;;5054521;28;20029;-76
2023/04/23 09:09:38;;;;;;;11.65;6.07;;;18.40;91.10;;;;;;5063920;28;20386;-76
2023/04/23 09:12:05;;;;;;;11.95;6.05;;;18.40;90.90;;;;;;5060527;28;20085;-76
2023/04/23 09:14:31;;;;;;;10.70;5.55;;;18.50;90.80;;;;;;5058458;28;20016;-76
2023/04/23 09:16:57;;;;;;;7.57;4.78;;;18.60;90.70;;;;;;5057487;28;20037;-76
2023/04/23 09:19:26;;;;;;;12.05;4.78;;;18.80;91.30;;;;;;5067165;28;20027;-77
2023/04/23 09:21:52;;;;;;;10.35;6.10;;;19.00;90.90;;;;;;5062893;28;20032;-78
2023/04/23 09:24:21;;;;;;;10.20;5.25;;;19.00;88.20;;;;;;5067045;28;20044;-78
2023/04/23 09:26:50;;;;;;;8.25;3.85;;;19.10;89.50;;;;;;5060503;28;20052;-76
2023/04/23 09:29:18;;;;;;;13.25;4.60;;;19.20;90.30;;;;;;5065370;28;20033;-76
2023/04/23 09:31:49;;;;;;;11.52;5.07;;;19.20;90.20;;;;;;5050276;28;20022;-76
2023/04/23 09:34:18;;;;;;;11.05;4.32;;;19.40;89.20;;;;;;5068129;28;20016;-75
2023/04/23 09:36:46;;;;;;;11.13;4.25;;;19.50;86.40;;;;;;5065464;28;20032;-76
2023/04/23 09:39:13;;;;;;;8.95;4.90;;;19.70;87.20;;;;;;5048598;28;20021;-74
2023/04/23 09:41:39;;;;;;;11.55;5.13;;;19.70;84.80;;;;;;5067975;28;20103;-75
2023/04/23 09:44:04;;;;;;;10.57;4.68;;;19.70;86.40;;;;;;5070133;28;20115;-77
2023/04/23 09:46:35;;;;;;;7.75;3.22;;;19.80;85.40;;;;;;5068085;28;20025;-77
2023/04/23 09:49:06;;;;;;;;;;;20.00;85.80;;;;;;5069871;28;20036;-76
2023/04/23 09:51:35;;;;;;;6.63;3.35;;;20.10;84.30;;;;;;5069188;28;19999;-75
2023/04/23 09:54:02;;;;;;;10.13;3.80;;;20.10;81.60;;;;;;5070493;28;20016;-76
2023/04/23 09:56:30;;;;;;;8.68;3.30;;;20.10;79.60;;;;;;5070650;28;20210;-76
2023/04/23 09:58:56;;;;;;;11.52;3.88;;;20.10;80.20;;;;;;5077713;28;20035;-76
2023/04/23 10:01:29;;;;;;;9.90;3.30;;;20.20;79.90;;;;;;5074727;28;20017;-77
2023/04/23 10:03:55;;;;;;;8.20;2.67;;;20.10;80.20;;;;;;5058084;28;20060;-74
2023/04/23 10:06:31;;;;;;;9.95;3.10;;;20.20;82.50;;;;;;5059803;28;20044;-76
2023/04/23 10:08:57;;;;;;;6.93;2.08;;;20.10;79.10;;;;;;5069439;28;20513;-76
2023/04/23 10:11:24;;;;;;;10.40;3.03;;;20.10;80.00;;;;;;5068285;28;20097;-76
2023/04/23 10:13:52;;;;;;;8.55;2.80;;;20.10;81.10;;;;;;5063486;28;20383;-76
2023/04/23 10:16:18;;;;;;;9.60;2.10;;;20.00;79.50;;;;;;5067976;28;20024;-77
2023/04/23 10:18:45;;;;;;;8.18;2.20;;;20.10;81.00;;;;;;5059643;28;20483;-76
2023/04/23 10:21:13;;;;;;;11.55;2.63;;;20.30;78.80;;;;;;5069418;28;20474;-75
2023/04/23 10:23:43;;;;;;;5.40;1.52;;;20.40;75.40;;;;;;5068474;28;20502;-77
2023/04/23 10:26:10;;;;;;;8.25;2.63;;;20.50;84.50;;;;;;5067911;28;20029;-75
2023/04/23 10:28:37;;;;;;;8.20;1.98;;;20.30;75.00;;;;;;5067443;28;20135;-76
2023/04/23 10:31:05;;;;;;;10.45;2.38;;;20.30;80.40;;;;;;5067258;28;20035;-76
2023/04/23 10:33:32;;;;;;;7.97;1.98;;;20.50;75.50;;;;;;5066920;28;20021;-75
2023/04/23 10:35:58;;;;;;;9.20;2.20;;;20.70;79.90;;;;;;5068735;28;20056;-77
2023/04/23 10:38:27;;;;;;;7.78;2.40;;;20.80;80.10;;;;;;5067219;28;20021;-76
2023/04/23 10:40:55;;;;;;;5.30;1.50;;;20.80;72.10;;;;;;5069434;28;20112;-77
2023/04/23 10:43:21;;;;;;;8.60;2.55;;;20.80;77.70;;;;;;5068179;28;20027;-76
2023/04/23 10:45:48;;;;;;;8.65;1.90;;;20.70;71.70;;;;;;5069120;28;20100;-76
2023/04/23 10:48:14;;;;;;;6.85;1.90;;;20.60;72.60;;;;;;5063566;28;20059;-75
2023/04/23 10:50:40;;;;;;;6.40;1.90;;;20.40;74.30;;;;;;5069680;28;20032;-76
2023/04/23 10:53:19;;;;;;;11.02;3.10;;;20.20;72.00;;;;;;5069758;28;20493;-78
2023/04/23 10:55:46;;;;;;;7.07;1.55;;;20.10;71.40;;;;;;5067159;28;20502;-77
2023/04/23 10:58:12;;;;;;;8.70;2.13;;;20.10;71.70;;;;;;5068659;28;20473;-75
2023/04/23 11:00:40;;;;;;;10.07;1.98;;;20.10;71.70;;;;;;5068329;28;20101;-76
2023/04/23 11:03:34;;;;;;;4.90;1.25;;;20.10;72.30;;;;;;5065737;28;20468;-76
2023/04/23 11:06:02;;;;;;;8.98;2.17;;;20.10;76.70;;;;;;5068770;28;20040;-75
2023/04/23 11:08:33;;;;;;;7.90;1.83;;;20.00;72.20;;;;;;5065769;28;20033;-77
2023/04/23 11:11:01;;;;;;;6.00;1.35;;;20.00;76.30;;;;;;5072603;28;20017;-77
2023/04/23 11:13:28;;;;;;;7.90;1.83;;;20.10;72.90;;;;;;5070776;28;20016;-76
2023/04/23 11:16:20;;;;;;;9.07;1.83;;;20.20;71.80;;;;;;5071734;28;20025;-76
2023/04/23 11:19:21;;;;;;;8.50;1.88;;;20.40;74.10;;;;;;5061425;28;20032;-76
2023/04/23 11:22:07;;;;;;;6.18;2.05;;;20.70;75.10;;;;;;5026333;28;20040;-76
2023/04/23 11:24:40;;;;;;;5.78;1.52;;;20.70;75.20;;;;;;5066019;28;20043;-77
2023/04/23 11:27:08;;;;;;;7.43;1.55;;;20.70;73.60;;;;;;5071531;28;20113;-76
2023/04/23 11:29:35;;;;;;;6.55;1.70;;;20.70;75.80;;;;;;5070124;28;20393;-76
2023/04/23 11:32:00;;;;;;;7.25;1.38;;;20.60;73.80;;;;;;5070303;28;20102;-76
2023/04/23 11:34:27;;;;;;;6.38;1.67;;;20.50;76.80;;;;;;5068727;28;20510;-77
2023/04/23 11:36:54;;;;;;;5.93;1.75;;;20.40;70.50;;;;;;5070233;28;20573;-76
2023/04/23 11:39:22;;;;;;;10.15;1.90;;;20.30;71.20;;;;;;5071122;28;20028;-76
2023/04/23 11:41:49;;;;;;;6.25;1.42;;;20.20;71.80;;;;;;5058237;28;20028;-76
2023/04/23 11:44:15;;;;;;;6.88;2.33;;;20.00;71.10;;;;;;5066488;28;20032;-77
2023/04/23 11:46:41;;;;;;;4.80;1.33;;;19.90;69.70;;;;;;5073805;28;20051;-76
2023/04/23 11:49:09;;;;;;;8.38;1.77;;;19.90;70.10;;;;;;5073625;28;20471;-76
2023/04/23 11:51:41;;;;;;;8.10;2.25;;;20.10;69.80;;;;;;5071771;28;20025;-75
2023/04/23 11:54:07;;;;;;;8.38;1.98;;;20.20;74.00;;;;;;5059486;28;20454;-75
2023/04/23 11:56:34;;;;;;;7.50;1.80;;;20.20;70.60;;;;;;5070385;28;20095;-75
2023/04/23 11:59:02;;;;;;;5.88;1.65;;;20.10;70.50;;;;;;5071149;28;20387;-74
2023/04/23 12:01:40;;;;;;;10.60;2.40;;;20.10;73.10;;;;;;5069740;28;20028;-74
2023/04/23 12:04:15;;;;;;;8.52;2.47;;;20.20;73.70;;;;;;5070752;28;20083;-76
2023/04/23 12:06:43;;;;;;;6.18;1.75;;;20.30;74.70;;;;;;5068819;28;20033;-74
2023/04/23 12:09:10;;;;;;;7.75;1.67;;;20.40;72.60;;;;;;5070302;28;20074;-75
2023/04/23 12:11:38;;;;;;;5.90;1.73;;;20.50;72.90;;;;;;5069817;28;20123;-74
2023/04/23 12:14:05;;;;;;;7.60;1.75;;;20.50;77.00;;;;;;5071236;28;20017;-74
2023/04/23 12:16:44;;;;;;;7.60;2.03;;;20.50;71.00;;;;;;5071317;28;20350;-75
2023/04/23 12:19:15;;;;;;;9.75;2.33;;;20.30;72.80;;;;;;5073728;28;20054;-74
2023/04/23 12:21:48;;;;;;;5.43;1.85;;;20.20;74.60;;;;;;5071616;28;20027;-76
2023/04/23 12:24:14;;;;;;;5.05;1.58;;;20.10;70.90;;;;;;5069246;28;20112;-76
2023/04/23 12:26:42;;;;;;;8.35;1.83;;;20.10;72.10;;;;;;5069195;28;20048;-76
2023/04/23 12:29:07;;;;;;;5.43;1.33;;;20.10;77.10;;;;;;5066856;28;20048;-75
2023/04/23 12:31:37;;;;;;;6.82;1.67;;;20.00;72.30;;;;;;5062297;28;20406;-74